Time;durP1;ratioP1;P1;durP2;ratioP2;P2;SDS_P1;SDS_P2;PMS_P1;PMS_P2;Temp;Humidity;BMP_temperature;BMP_pressure;BME280_temperature;BME280_humidity;BME280_pressure;Samples;Min_cycle;Max_cycle;Signal;HPM_P1;HPM_P2
2022/09/13 00:01:13;;;;;;;7.10;4.28;;;;;;;;;;4968692;29;20102;-76
2022/09/13 00:03:42;;;;;;;5.88;4.30;;;;;;;;;;4973042;29;20023;-82
2022/09/13 00:06:09;;;;;;;6.60;4.30;;;;;;;;;;4965233;29;20109;-82
2022/09/13 00:08:35;;;;;;;4.80;4.05;;;;;;;;;;4972826;29;20049;-77
2022/09/13 00:11:06;;;;;;;6.60;4.20;;;;;;;;;;4973106;29;20038;-76
2022/09/13 00:13:36;;;;;;;6.68;3.88;;;;;;;;;;4974102;29;20099;-76
2022/09/13 00:16:03;;;;;;;6.70;4.18;;;;;;;;;;4972482;28;20050;-76
2022/09/13 00:21:29;;;;;;;5.50;4.28;;;;;;;;;;4836478;23;20090;-79
2022/09/13 00:23:55;;;;;;;6.20;4.45;;;;;;;;;;4962839;29;20043;-79
2022/09/13 00:26:26;;;;;;;7.95;4.30;;;;;;;;;;4969676;29;20105;-78
2022/09/13 00:28:53;;;;;;;5.95;4.20;;;;;;;;;;4961606;29;20019;-82
2022/09/13 00:31:20;;;;;;;6.57;4.30;;;;;;;;;;4958334;29;20031;-76
2022/09/13 00:33:46;;;;;;;6.72;4.45;;;;;;;;;;4975858;29;20027;-77
2022/09/13 00:36:14;;;;;;;5.68;4.40;;;;;;;;;;4965547;29;20035;-78
2022/09/13 00:38:41;;;;;;;5.53;4.20;;;;;;;;;;4973486;29;20029;-82
2022/09/13 00:41:08;;;;;;;5.88;4.70;;;;;;;;;;4977649;29;20100;-81
2022/09/13 00:43:40;;;;;;;7.95;4.60;;;;;;;;;;4977836;29;20012;-80
2022/09/13 00:46:20;;;;;;;7.32;4.55;;;;;;;;;;4977779;29;20046;-81
2022/09/13 00:48:48;;;;;;;7.03;4.50;;;;;;;;;;4970476;29;20063;-78
2022/09/13 00:51:24;;;;;;;6.40;4.50;;;;;;;;;;4971813;29;20038;-75
2022/09/13 00:53:59;;;;;;;5.80;4.38;;;;;;;;;;4969918;29;20035;-77
2022/09/13 00:56:41;;;;;;;6.72;4.35;;;;;;;;;;4972125;29;20020;-82
2022/09/13 00:59:20;;;;;;;7.18;4.43;;;;;;;;;;4960570;29;20036;-78
2022/09/13 01:01:51;;;;;;;6.97;4.50;;;;;;;;;;4958340;29;20027;-82
2022/09/13 01:04:34;;;;;;;5.75;4.22;;;;;;;;;;4961507;29;20023;-82
2022/09/13 01:07:11;;;;;;;5.60;4.60;;;;;;;;;;4957688;29;20019;-81
2022/09/13 01:09:43;;;;;;;8.15;4.22;;;;;;;;;;4971601;29;20051;-82
2022/09/13 01:12:27;;;;;;;4.53;3.95;;;;;;;;;;4978085;29;20047;-82
2022/09/13 01:14:56;;;;;;;5.97;3.97;;;;;;;;;;4978164;28;20036;-83
2022/09/13 01:17:23;;;;;;;7.97;4.65;;;;;;;;;;4978029;29;20034;-82
2022/09/13 01:19:49;;;;;;;6.13;4.40;;;;;;;;;;4974902;29;20078;-84
2022/09/13 01:22:34;;;;;;;6.43;4.50;;;;;;;;;;4974442;29;20047;-81
2022/09/13 01:25:18;;;;;;;6.05;4.50;;;;;;;;;;4976861;29;20015;-79
2022/09/13 01:27:47;;;;;;;5.65;4.30;;;;;;;;;;4964372;29;20008;-77
2022/09/13 01:30:23;;;;;;;6.22;4.07;;;;;;;;;;4961878;29;20028;-79
2022/09/13 01:32:56;;;;;;;8.43;5.05;;;;;;;;;;4943996;29;20577;-80
2022/09/13 01:35:41;;;;;;;8.52;5.03;;;;;;;;;;4945979;29;20039;-80
2022/09/13 01:38:16;;;;;;;6.97;4.38;;;;;;;;;;4963757;29;20011;-81
2022/09/13 01:40:47;;;;;;;6.10;4.68;;;;;;;;;;4982384;29;20031;-80
2022/09/13 01:43:32;;;;;;;6.90;4.88;;;;;;;;;;4979884;29;20019;-80
2022/09/13 01:45:58;;;;;;;6.90;5.05;;;;;;;;;;4961614;29;20015;-80
2022/09/13 01:48:29;;;;;;;6.78;4.88;;;;;;;;;;4958140;29;20027;-76
2022/09/13 01:51:05;;;;;;;9.15;4.70;;;;;;;;;;4925172;29;20096;-79
2022/09/13 01:54:04;;;;;;;9.23;5.10;;;;;;;;;;4969026;29;20003;-76
2022/09/13 01:56:53;;;;;;;8.13;5.13;;;;;;;;;;4909455;29;20037;-76
2022/09/13 01:59:23;;;;;;;6.68;5.13;;;;;;;;;;4894100;29;20068;-80
2022/09/13 02:01:55;;;;;;;6.80;5.22;;;;;;;;;;4887204;29;20025;-77
2022/09/13 02:04:23;;;;;;;7.47;5.13;;;;;;;;;;4880611;29;20056;-76
2022/09/13 02:06:54;;;;;;;8.80;5.40;;;;;;;;;;4876427;29;20046;-78
2022/09/13 02:09:25;;;;;;;7.97;5.45;;;;;;;;;;4883803;29;20036;-80
2022/09/13 02:12:03;;;;;;;12.40;5.32;;;;;;;;;;4884665;29;20052;-82
2022/09/13 02:14:58;;;;;;;8.27;5.90;;;;;;;;;;4884847;29;20085;-81
2022/09/13 02:17:27;;;;;;;10.10;5.03;;;;;;;;;;4881510;29;20085;-77
2022/09/13 02:19:55;;;;;;;6.80;5.30;;;;;;;;;;4883097;29;20112;-77
2022/09/13 02:22:34;;;;;;;7.85;5.10;;;;;;;;;;4872056;29;20058;-77
2022/09/13 02:25:11;;;;;;;7.22;5.30;;;;;;;;;;4873599;29;20053;-78
2022/09/13 02:27:46;;;;;;;7.78;5.30;;;;;;;;;;4887028;29;20080;-81
2022/09/13 02:30:14;;;;;;;7.90;5.38;;;;;;;;;;4891582;29;20068;-81
2022/09/13 02:32:52;;;;;;;10.00;5.32;;;;;;;;;;4889599;29;20048;-78
2022/09/13 02:35:49;;;;;;;7.90;5.10;;;;;;;;;;4905021;29;20020;-76
2022/09/13 02:38:19;;;;;;;8.23;4.93;;;;;;;;;;4955762;29;20063;-80
2022/09/13 02:40:49;;;;;;;5.88;5.00;;;;;;;;;;4969429;28;20050;-79
2022/09/13 02:43:41;;;;;;;10.35;6.30;;;;;;;;;;4945297;29;20046;-78
2022/09/13 02:46:10;;;;;;;15.38;9.85;;;;;;;;;;4919975;29;20059;-76
2022/09/13 02:48:45;;;;;;;12.35;7.80;;;;;;;;;;4967607;29;20008;-77
2022/09/13 02:51:25;;;;;;;7.93;6.10;;;;;;;;;;4958588;29;20027;-76
2022/09/13 02:54:11;;;;;;;10.38;5.53;;;;;;;;;;4956072;29;20016;-76
2022/09/13 02:57:05;;;;;;;8.15;5.18;;;;;;;;;;4974832;29;20024;-78
2022/09/13 02:59:44;;;;;;;6.93;5.47;;;;;;;;;;4968577;29;20130;-78
2022/09/13 03:02:13;;;;;;;8.75;5.43;;;;;;;;;;4960330;29;20030;-77
2022/09/13 03:04:51;;;;;;;10.07;5.10;;;;;;;;;;4950508;29;20031;-82
2022/09/13 03:07:18;;;;;;;8.00;5.25;;;;;;;;;;4974188;29;20062;-82
2022/09/13 03:09:55;;;;;;;8.32;5.78;;;;;;;;;;4976381;29;20019;-75
2022/09/13 03:12:24;;;;;;;8.57;5.47;;;;;;;;;;4964386;29;20038;-78
2022/09/13 03:14:56;;;;;;;7.40;5.55;;;;;;;;;;4975596;29;20020;-77
2022/09/13 03:17:25;;;;;;;7.25;5.28;;;;;;;;;;4949718;29;20067;-76
2022/09/13 03:19:51;;;;;;;9.18;5.50;;;;;;;;;;4967742;29;20023;-81
2022/09/13 03:22:30;;;;;;;7.80;5.78;;;;;;;;;;4968414;29;20051;-76
2022/09/13 03:24:56;;;;;;;10.68;5.82;;;;;;;;;;4940068;29;20055;-79
2022/09/13 03:27:39;;;;;;;9.90;5.80;;;;;;;;;;4960528;29;20055;-79
2022/09/13 03:30:27;;;;;;;7.72;5.28;;;;;;;;;;4910098;29;20055;-76
2022/09/13 03:33:06;;;;;;;7.45;6.22;;;;;;;;;;4957154;29;20047;-76
2022/09/13 03:35:44;;;;;;;8.43;5.55;;;;;;;;;;4953226;29;20079;-76
2022/09/13 03:38:19;;;;;;;9.57;5.88;;;;;;;;;;4941715;29;20084;-82
2022/09/13 03:40:48;;;;;;;6.60;5.13;;;;;;;;;;4960948;28;20080;-78
2022/09/13 03:43:37;;;;;;;7.65;5.43;;;;;;;;;;4955448;29;20051;-76
2022/09/13 03:46:30;;;;;;;6.55;5.68;;;;;;;;;;4957700;29;20087;-82
2022/09/13 03:49:04;;;;;;;6.75;5.60;;;;;;;;;;4937643;29;20040;-81
2022/09/13 03:51:40;;;;;;;7.95;5.47;;;;;;;;;;4945912;29;20015;-76
2022/09/13 03:54:10;;;;;;;10.20;5.88;;;;;;;;;;4957247;29;20031;-77
2022/09/13 03:56:37;;;;;;;6.95;5.28;;;;;;;;;;4956503;29;20032;-77
2022/09/13 03:59:04;;;;;;;6.63;5.28;;;;;;;;;;4956884;29;20091;-75
2022/09/13 04:01:45;;;;;;;7.97;5.78;;;;;;;;;;4956098;29;20040;-76
2022/09/13 04:04:16;;;;;;;9.85;5.80;;;;;;;;;;4954891;29;20047;-76
2022/09/13 04:06:43;;;;;;;8.27;5.75;;;;;;;;;;4954423;29;20044;-76
2022/09/13 04:09:12;;;;;;;8.38;5.82;;;;;;;;;;4955983;29;20088;-78
2022/09/13 04:11:41;;;;;;;9.68;5.50;;;;;;;;;;4958031;29;20056;-80
2022/09/13 04:14:07;;;;;;;10.75;5.82;;;;;;;;;;4953841;29;20058;-76
2022/09/13 04:16:33;;;;;;;8.43;6.07;;;;;;;;;;4951793;29;20435;-76
2022/09/13 04:18:59;;;;;;;8.10;6.10;;;;;;;;;;4952653;29;20031;-76
2022/09/13 04:21:26;;;;;;;12.45;6.35;;;;;;;;;;4969713;29;20027;-80
2022/09/13 04:26:53;;;;;;;9.52;5.68;;;;;;;;;;4960821;29;20046;-80
2022/09/13 04:29:30;;;;;;;8.45;5.72;;;;;;;;;;4961114;28;20023;-81
2022/09/13 04:31:57;;;;;;;10.75;6.60;;;;;;;;;;4897849;29;20051;-78
2022/09/13 04:34:39;;;;;;;9.25;7.00;;;;;;;;;;4960910;29;20011;-80
2022/09/13 04:37:06;;;;;;;9.82;7.03;;;;;;;;;;4959286;29;20501;-78
2022/09/13 04:39:36;;;;;;;10.23;6.80;;;;;;;;;;4949657;29;20016;-77
2022/09/13 04:42:10;;;;;;;9.75;6.72;;;;;;;;;;4958356;29;20477;-77
2022/09/13 04:44:36;;;;;;;11.55;6.50;;;;;;;;;;4959700;29;20007;-78
2022/09/13 04:47:02;;;;;;;6.78;5.60;;;;;;;;;;4960411;29;20034;-80
2022/09/13 04:49:34;;;;;;;6.60;5.43;;;;;;;;;;4959002;29;20031;-82
2022/09/13 04:52:21;;;;;;;10.98;5.80;;;;;;;;;;4915451;29;20045;-78
2022/09/13 04:54:48;;;;;;;8.90;5.85;;;;;;;;;;4918931;29;20020;-83
2022/09/13 04:57:15;;;;;;;8.77;5.70;;;;;;;;;;4906718;29;20141;-79
2022/09/13 04:59:42;;;;;;;7.03;5.50;;;;;;;;;;4901521;29;20037;-80
2022/09/13 05:02:08;;;;;;;7.40;6.10;;;;;;;;;;4899690;29;20048;-82
2022/09/13 05:04:34;;;;;;;10.55;6.90;;;;;;;;;;4912335;29;20037;-79
2022/09/13 05:07:02;;;;;;;9.80;6.70;;;;;;;;;;4900736;29;20056;-77
2022/09/13 05:09:31;;;;;;;8.13;5.88;;;;;;;;;;4901037;29;20096;-79
2022/09/13 05:12:10;;;;;;;8.43;5.80;;;;;;;;;;4886158;29;20093;-77
2022/09/13 05:14:42;;;;;;;9.77;5.80;;;;;;;;;;4895833;29;20041;-75
2022/09/13 05:17:09;;;;;;;10.75;5.57;;;;;;;;;;4896913;29;20064;-77
2022/09/13 05:19:36;;;;;;;8.77;5.05;;;;;;;;;;4886483;29;20044;-75
2022/09/13 05:22:04;;;;;;;7.30;5.03;;;;;;;;;;4874868;29;20082;-77
2022/09/13 05:24:35;;;;;;;8.32;5.53;;;;;;;;;;4875755;29;20097;-74
2022/09/13 05:27:03;;;;;;;10.80;5.65;;;;;;;;;;4862206;29;20540;-76
2022/09/13 05:29:29;;;;;;;9.40;5.78;;;;;;;;;;4897366;29;20060;-74
2022/09/13 05:32:17;;;;;;;8.70;5.50;;;;;;;;;;4921935;29;20160;-71
2022/09/13 05:37:58;;;;;;;14.38;7.20;;;;;;;;;;4874832;29;20040;-73
2022/09/13 05:40:25;;;;;;;12.70;7.25;;;;;;;;;;4864120;29;20041;-86
2022/09/13 05:43:00;;;;;;;9.20;5.90;;;;;;;;;;4883641;29;20049;-77
2022/09/13 05:45:28;;;;;;;9.75;6.00;;;;;;;;;;4876356;29;20128;-89
2022/09/13 05:47:54;;;;;;;5.93;5.32;;;;;;;;;;4873455;29;20040;-93
2022/09/13 05:50:20;;;;;;;9.02;6.57;;;;;;;;;;4857851;29;20120;-82
2022/09/13 05:52:52;;;;;;;10.20;6.60;;;;;;;;;;4876381;29;20029;-93
2022/09/13 05:55:18;;;;;;;9.95;5.53;;;;;;;;;;4858481;29;20033;-89
2022/09/13 05:57:44;;;;;;;11.40;5.85;;;;;;;;;;4877400;29;20062;-84
2022/09/13 06:00:10;;;;;;;11.60;6.88;;;;;;;;;;4887452;29;20028;-89
2022/09/13 06:02:36;;;;;;;11.30;6.53;;;;;;;;;;4865796;29;20044;-81
2022/09/13 06:05:02;;;;;;;7.85;6.05;;;;;;;;;;4877162;29;20093;-79
2022/09/13 06:07:28;;;;;;;8.70;5.05;;;;;;;;;;4885648;29;20398;-84
2022/09/13 06:09:54;;;;;;;10.80;5.90;;;;;;;;;;4878154;29;20093;-80
2022/09/13 06:12:20;;;;;;;11.10;6.05;;;;;;;;;;4875277;29;20613;-78
2022/09/13 06:14:47;;;;;;;6.60;4.85;;;;;;;;;;4895350;29;20110;-77
2022/09/13 06:17:13;;;;;;;8.73;6.40;;;;;;;;;;4906210;29;20040;-88
2022/09/13 06:19:40;;;;;;;11.85;7.43;;;;;;;;;;4918596;29;20038;-85
2022/09/13 06:22:08;;;;;;;10.32;7.07;;;;;;;;;;4906281;29;20123;-82
2022/09/13 06:24:36;;;;;;;7.57;5.95;;;;;;;;;;4902709;29;20040;-81
2022/09/13 06:27:02;;;;;;;7.40;5.70;;;;;;;;;;4913181;29;20056;-80
2022/09/13 06:29:28;;;;;;;8.45;5.55;;;;;;;;;;4917654;29;20028;-80
2022/09/13 06:31:54;;;;;;;7.03;5.38;;;;;;;;;;4912981;29;20067;-81
2022/09/13 06:34:20;;;;;;;8.25;5.90;;;;;;;;;;4901896;29;20020;-81
2022/09/13 06:36:46;;;;;;;7.25;5.18;;;;;;;;;;4917164;29;20044;-77
2022/09/13 06:39:13;;;;;;;6.03;5.25;;;;;;;;;;4916896;29;20502;-83
2022/09/13 06:41:39;;;;;;;9.18;4.97;;;;;;;;;;4915971;29;20024;-84
2022/09/13 06:44:17;;;;;;;5.05;4.38;;;;;;;;;;4918236;29;20040;-83
2022/09/13 06:46:43;;;;;;;9.80;5.25;;;;;;;;;;4915073;29;20490;-79
2022/09/13 06:49:09;;;;;;;6.57;5.80;;;;;;;;;;4916480;29;20039;-89
2022/09/13 06:51:36;;;;;;;9.50;4.90;;;;;;;;;;4915304;29;20035;-81
2022/09/13 06:54:03;;;;;;;8.93;4.53;;;;;;;;;;4901136;29;20041;-83
2022/09/13 06:56:34;;;;;;;9.98;4.68;;;;;;;;;;4901038;29;20413;-82
2022/09/13 06:59:07;;;;;;;12.30;6.35;;;;;;;;;;4914037;29;20047;-83
2022/09/13 07:01:34;;;;;;;7.10;4.53;;;;;;;;;;4916232;29;20028;-79
2022/09/13 07:04:02;;;;;;;6.60;4.35;;;;;;;;;;4898813;29;20032;-79
2022/09/13 07:06:30;;;;;;;6.38;4.18;;;;;;;;;;4898551;29;20512;-82
2022/09/13 07:08:56;;;;;;;7.53;4.93;;;;;;;;;;4916960;29;20035;-82
2022/09/13 07:11:24;;;;;;;9.45;3.92;;;;;;;;;;4915713;29;20490;-81
2022/09/13 07:13:54;;;;;;;12.65;4.78;;;;;;;;;;4916968;29;20482;-81
2022/09/13 07:16:21;;;;;;;8.55;4.45;;;;;;;;;;4917368;29;20028;-82
2022/09/13 07:18:53;;;;;;;8.10;4.10;;;;;;;;;;4916257;29;20498;-81
2022/09/13 07:21:19;;;;;;;5.30;4.10;;;;;;;;;;4923249;29;20067;-75
2022/09/13 07:23:45;;;;;;;7.28;4.35;;;;;;;;;;4936514;29;20058;-84
2022/09/13 07:26:12;;;;;;;6.30;4.05;;;;;;;;;;4936722;29;20057;-78
2022/09/13 07:28:39;;;;;;;4.45;3.20;;;;;;;;;;4936925;29;20070;-80
2022/09/13 07:31:06;;;;;;;10.35;3.70;;;;;;;;;;4936789;29;20032;-78
2022/09/13 07:33:32;;;;;;;5.22;3.50;;;;;;;;;;4931546;29;20058;-80
2022/09/13 07:36:00;;;;;;;7.40;3.60;;;;;;;;;;4936942;29;20038;-82
2022/09/13 07:38:26;;;;;;;3.97;3.30;;;;;;;;;;4933666;29;20075;-76
2022/09/13 07:40:54;;;;;;;6.80;3.70;;;;;;;;;;4934320;29;20306;-77
2022/09/13 07:43:20;;;;;;;5.32;3.63;;;;;;;;;;4934444;29;20067;-81
2022/09/13 07:45:46;;;;;;;5.15;3.80;;;;;;;;;;4934140;29;20039;-76
2022/09/13 07:48:13;;;;;;;10.02;3.78;;;;;;;;;;4935113;29;20544;-80
2022/09/13 07:50:39;;;;;;;4.97;3.88;;;;;;;;;;4934714;29;20043;-77
2022/09/13 07:53:05;;;;;;;5.80;3.92;;;;;;;;;;4934571;29;20031;-80
2022/09/13 07:55:31;;;;;;;7.18;3.70;;;;;;;;;;4936881;29;20023;-78
2022/09/13 07:57:58;;;;;;;50.85;6.53;;;;;;;;;;4933903;29;20051;-78
2022/09/13 08:00:27;;;;;;;14.00;4.57;;;;;;;;;;4932776;29;20028;-80
2022/09/13 08:02:53;;;;;;;11.43;3.70;;;;;;;;;;4918502;29;20079;-82
2022/09/13 08:05:19;;;;;;;10.93;4.43;;;;;;;;;;4936240;29;20024;-82
2022/09/13 08:07:48;;;;;;;7.38;4.60;;;;;;;;;;4934043;29;20040;-76
2022/09/13 08:10:14;;;;;;;7.68;4.68;;;;;;;;;;4933050;29;20572;-80
2022/09/13 08:12:40;;;;;;;10.25;6.85;;;;;;;;;;4935993;29;20079;-77
2022/09/13 08:15:06;;;;;;;13.80;9.63;;;;;;;;;;4936087;29;20037;-80
2022/09/13 08:17:32;;;;;;;9.05;4.35;;;;;;;;;;4934120;29;20035;-75
2022/09/13 08:19:59;;;;;;;4.90;3.70;;;;;;;;;;4934367;29;20032;-80
2022/09/13 08:22:25;;;;;;;6.60;3.40;;;;;;;;;;4927053;29;20047;-83
2022/09/13 08:24:51;;;;;;;5.97;3.47;;;;;;;;;;4933517;29;20035;-86
2022/09/13 08:27:17;;;;;;;5.07;2.90;;;;;;;;;;4932473;29;20043;-83
2022/09/13 08:29:43;;;;;;;6.25;3.08;;;;;;;;;;4932328;29;20481;-78
2022/09/13 08:32:09;;;;;;;5.57;3.05;;;;;;;;;;4932342;29;20035;-75
2022/09/13 08:34:54;;;;;;;7.32;3.00;;;;;;;;;;4933213;29;20063;-85
2022/09/13 08:37:21;;;;;;;4.93;2.80;;;;;;;;;;4915315;29;20060;-86
2022/09/13 08:39:47;;;;;;;6.18;3.35;;;;;;;;;;4917164;29;20059;-79
2022/09/13 08:42:46;;;;;;;5.68;3.40;;;;;;;;;;4934049;29;20035;-83
2022/09/13 08:45:31;;;;;;;4.93;3.08;;;;;;;;;;4917412;29;20083;-83
2022/09/13 08:48:18;;;;;;;4.93;3.00;;;;;;;;;;4932618;29;20031;-77
2022/09/13 08:50:50;;;;;;;4.55;3.20;;;;;;;;;;4934799;29;20036;-84
2022/09/13 08:53:19;;;;;;;5.78;2.83;;;;;;;;;;4918276;29;20123;-81
2022/09/13 08:55:59;;;;;;;5.47;3.17;;;;;;;;;;4933663;29;20039;-81
2022/09/13 08:58:25;;;;;;;18.30;4.45;;;;;;;;;;4933253;29;20031;-85
2022/09/13 09:00:57;;;;;;;5.15;3.35;;;;;;;;;;4933853;29;20054;-81
2022/09/13 09:03:42;;;;;;;5.50;3.13;;;;;;;;;;4915574;29;20039;-82
2022/09/13 09:06:13;;;;;;;5.93;3.15;;;;;;;;;;4932606;29;20544;-86
2022/09/13 09:08:41;;;;;;;6.75;3.55;;;;;;;;;;4929968;29;20079;-76
2022/09/13 09:11:11;;;;;;;6.93;3.60;;;;;;;;;;4931419;29;20028;-87
2022/09/13 09:13:44;;;;;;;6.03;3.35;;;;;;;;;;4933478;29;20071;-85
2022/09/13 09:16:16;;;;;;;5.57;3.00;;;;;;;;;;4934444;29;20035;-78
2022/09/13 09:18:44;;;;;;;5.50;3.35;;;;;;;;;;4935174;29;20098;-82
2022/09/13 09:21:15;;;;;;;7.88;3.20;;;;;;;;;;4935289;29;20099;-81
2022/09/13 09:24:03;;;;;;;3.90;3.05;;;;;;;;;;4934446;29;20095;-83
2022/09/13 09:26:30;;;;;;;6.07;3.25;;;;;;;;;;4931296;29;20043;-82
2022/09/13 09:28:56;;;;;;;4.57;3.17;;;;;;;;;;4935648;29;20437;-86
2022/09/13 09:31:31;;;;;;;5.80;3.63;;;;;;;;;;4926752;29;20035;-88
2022/09/13 09:34:16;;;;;;;4.88;3.03;;;;;;;;;;4924262;29;20024;-83
2022/09/13 09:36:42;;;;;;;6.70;3.13;;;;;;;;;;4922495;29;20062;-86
2022/09/13 09:39:15;;;;;;;8.05;3.30;;;;;;;;;;4923441;29;20077;-88
2022/09/13 09:41:58;;;;;;;6.43;2.80;;;;;;;;;;4923099;29;20036;-72
2022/09/13 09:44:34;;;;;;;4.63;3.08;;;;;;;;;;4910888;29;20070;-75
2022/09/13 09:47:12;;;;;;;9.05;3.25;;;;;;;;;;4911548;29;20138;-73
2022/09/13 09:50:10;;;;;;;7.75;2.75;;;;;;;;;;4908725;29;20039;-84
2022/09/13 09:52:50;;;;;;;7.70;2.80;;;;;;;;;;4925048;29;20043;-87
2022/09/13 09:55:19;;;;;;;4.43;3.00;;;;;;;;;;4944813;29;20028;-86
2022/09/13 09:57:54;;;;;;;5.35;2.30;;;;;;;;;;4938131;29;20028;-77
2022/09/13 10:00:22;;;;;;;4.00;2.25;;;;;;;;;;4939055;29;20146;-85
2022/09/13 10:02:49;;;;;;;4.72;2.75;;;;;;;;;;4936636;29;20035;-77
2022/09/13 10:05:18;;;;;;;4.65;2.58;;;;;;;;;;4936852;29;20035;-82
2022/09/13 10:07:52;;;;;;;2.40;2.20;;;;;;;;;;4937818;29;20023;-79
2022/09/13 10:10:24;;;;;;;5.47;2.55;;;;;;;;;;4936592;29;20019;-86
2022/09/13 10:12:51;;;;;;;7.22;2.97;;;;;;;;;;4932806;29;20023;-83
2022/09/13 10:15:19;;;;;;;4.40;2.40;;;;;;;;;;4935628;29;20028;-82
2022/09/13 10:18:02;;;;;;;5.60;2.58;;;;;;;;;;4918848;29;20027;-80
2022/09/13 10:20:30;;;;;;;3.30;2.50;;;;;;;;;;4936757;29;20023;-75
2022/09/13 10:23:17;;;;;;;6.85;2.55;;;;;;;;;;4919755;29;20035;-77
2022/09/13 10:26:02;;;;;;;4.55;2.33;;;;;;;;;;4936195;29;20049;-74
2022/09/13 10:28:29;;;;;;;5.75;2.30;;;;;;;;;;4937704;29;20489;-83
2022/09/13 10:31:08;;;;;;;9.38;2.65;;;;;;;;;;4920200;29;20413;-75
2022/09/13 10:33:38;;;;;;;2.40;2.15;;;;;;;;;;4937001;29;20486;-83
2022/09/13 10:36:07;;;;;;;3.83;2.28;;;;;;;;;;4935935;29;20024;-84
2022/09/13 10:38:36;;;;;;;3.42;2.47;;;;;;;;;;4920228;29;20036;-82
2022/09/13 10:41:04;;;;;;;4.53;2.13;;;;;;;;;;4920811;29;20016;-88
2022/09/13 10:43:31;;;;;;;3.08;2.30;;;;;;;;;;4914880;29;20036;-83
2022/09/13 10:45:58;;;;;;;4.28;2.20;;;;;;;;;;4917719;29;20043;-77
2022/09/13 10:48:44;;;;;;;6.72;2.40;;;;;;;;;;4937499;29;20478;-78
2022/09/13 10:51:16;;;;;;;3.70;2.38;;;;;;;;;;4916795;29;20028;-76
2022/09/13 10:53:42;;;;;;;6.63;2.30;;;;;;;;;;4935516;29;20442;-77
2022/09/13 10:56:19;;;;;;;3.60;2.40;;;;;;;;;;4935588;29;20047;-77
2022/09/13 10:58:45;;;;;;;3.08;2.25;;;;;;;;;;4934933;29;20094;-73
2022/09/13 11:01:30;;;;;;;1.85;1.63;;;;;;;;;;4936061;29;20371;-79
2022/09/13 11:04:26;;;;;;;2.30;2.05;;;;;;;;;;4936336;29;20028;-73
2022/09/13 11:06:54;;;;;;;4.00;2.30;;;;;;;;;;4826246;29;20577;-84
2022/09/13 11:09:29;;;;;;;4.18;2.10;;;;;;;;;;4811212;29;20498;-75
2022/09/13 11:12:06;;;;;;;2.47;1.85;;;;;;;;;;4807597;29;20506;-86
2022/09/13 11:14:32;;;;;;;2.63;2.28;;;;;;;;;;4821532;29;20049;-81
2022/09/13 11:16:58;;;;;;;6.75;2.40;;;;;;;;;;4836716;29;20048;-76
2022/09/13 11:19:30;;;;;;;4.82;2.30;;;;;;;;;;4824502;29;20034;-78
2022/09/13 11:22:22;;;;;;;4.88;2.20;;;;;;;;;;4824620;29;20054;-76
2022/09/13 11:24:54;;;;;;;10.90;2.65;;;;;;;;;;4826275;29;20228;-75
2022/09/13 11:27:26;;;;;;;5.22;2.30;;;;;;;;;;4828261;29;20445;-75
2022/09/13 11:29:52;;;;;;;3.05;2.28;;;;;;;;;;4827030;29;20042;-77
2022/09/13 11:32:26;;;;;;;2.38;1.90;;;;;;;;;;4825424;29;20069;-77
2022/09/13 11:35:11;;;;;;;4.38;2.72;;;;;;;;;;4832304;29;20484;-83
2022/09/13 11:37:43;;;;;;;6.07;2.97;;;;;;;;;;4821712;29;20528;-75
2022/09/13 11:40:15;;;;;;;5.60;2.17;;;;;;;;;;4822472;29;20064;-76
2022/09/13 11:43:00;;;;;;;3.85;2.42;;;;;;;;;;4849841;29;20440;-77
2022/09/13 11:45:27;;;;;;;12.07;4.95;;;;;;;;;;4933196;29;20038;-74
2022/09/13 11:48:02;;;;;;;8.55;3.40;;;;;;;;;;4934342;29;20036;-77
2022/09/13 11:50:38;;;;;;;6.20;3.08;;;;;;;;;;4936732;29;20079;-82
2022/09/13 11:53:23;;;;;;;12.02;4.20;;;;;;;;;;4936761;29;20020;-85
2022/09/13 11:55:54;;;;;;;5.55;2.90;;;;;;;;;;4935746;29;20516;-84
2022/09/13 11:58:47;;;;;;;2.65;2.20;;;;;;;;;;4913313;29;20036;-86
2022/09/13 12:01:17;;;;;;;4.68;2.55;;;;;;;;;;4919782;29;20047;-83
2022/09/13 12:03:57;;;;;;;5.65;2.42;;;;;;;;;;4917094;29;20474;-86
2022/09/13 12:06:26;;;;;;;5.43;2.38;;;;;;;;;;4933016;29;20110;-89
2022/09/13 12:09:16;;;;;;;4.18;2.45;;;;;;;;;;4935940;29;20509;-79
2022/09/13 12:11:45;;;;;;;8.52;2.70;;;;;;;;;;4922808;29;20040;-84
2022/09/13 12:14:27;;;;;;;6.25;2.65;;;;;;;;;;4929190;29;20106;-87
2022/09/13 12:16:57;;;;;;;3.75;2.60;;;;;;;;;;4919805;29;20122;-87
2022/09/13 12:19:23;;;;;;;3.38;2.35;;;;;;;;;;4933229;29;20115;-83
2022/09/13 12:21:50;;;;;;;5.68;2.63;;;;;;;;;;4937361;29;20048;-89
2022/09/13 12:24:19;;;;;;;5.10;3.05;;;;;;;;;;4919024;29;20032;-79
2022/09/13 12:27:05;;;;;;;4.32;2.45;;;;;;;;;;4919001;29;20035;-88
2022/09/13 12:29:36;;;;;;;3.70;2.22;;;;;;;;;;4919378;29;20028;-91
2022/09/13 12:32:04;;;;;;;9.70;5.43;;;;;;;;;;4920580;29;20070;-76
2022/09/13 12:34:41;;;;;;;3.90;2.45;;;;;;;;;;4931721;29;20023;-80
2022/09/13 12:37:10;;;;;;;3.95;2.70;;;;;;;;;;4934814;29;20024;-83
2022/09/13 12:40:17;;;;;;;4.65;2.75;;;;;;;;;;4939071;29;20031;-77
2022/09/13 12:42:51;;;;;;;6.13;3.50;;;;;;;;;;4864463;29;20046;-87
2022/09/13 12:45:28;;;;;;;4.57;2.38;;;;;;;;;;4877173;29;20036;-83
2022/09/13 12:47:54;;;;;;;4.22;2.95;;;;;;;;;;4867187;29;20080;-92
2022/09/13 12:50:21;;;;;;;4.97;2.97;;;;;;;;;;4875837;29;20081;-93
2022/09/13 12:52:53;;;;;;;7.70;4.15;;;;;;;;;;4871560;29;20041;-89
2022/09/13 12:55:31;;;;;;;6.55;4.07;;;;;;;;;;4866728;29;20040;-90
2022/09/13 12:58:00;;;;;;;5.20;2.67;;;;;;;;;;4863213;29;20483;-89
2022/09/13 13:00:30;;;;;;;6.22;2.53;;;;;;;;;;4863502;29;20472;-88
2022/09/13 13:02:56;;;;;;;8.80;2.72;;;;;;;;;;4858719;29;20026;-88
2022/09/13 13:05:42;;;;;;;2.30;2.10;;;;;;;;;;4863888;29;20029;-86
2022/09/13 13:08:17;;;;;;;3.97;2.25;;;;;;;;;;4871522;29;20084;-90
2022/09/13 13:10:43;;;;;;;4.50;2.90;;;;;;;;;;4860026;29;20029;-84
2022/09/13 13:13:13;;;;;;;4.05;2.65;;;;;;;;;;4892739;29;20043;-87
2022/09/13 13:15:42;;;;;;;6.07;2.40;;;;;;;;;;4935579;29;20494;-80
2022/09/13 13:18:29;;;;;;;4.18;2.40;;;;;;;;;;4928173;29;20063;-82
2022/09/13 13:20:55;;;;;;;4.63;2.35;;;;;;;;;;4934884;29;20028;-85
2022/09/13 13:23:34;;;;;;;4.43;2.40;;;;;;;;;;4931337;28;20095;-79
2022/09/13 13:26:32;;;;;;;4.35;2.45;;;;;;;;;;4938453;29;20046;-77
2022/09/13 13:29:12;;;;;;;5.60;2.70;;;;;;;;;;4930416;29;20482;-78
2022/09/13 13:31:38;;;;;;;6.93;2.50;;;;;;;;;;4939301;29;20028;-88
2022/09/13 13:34:14;;;;;;;3.13;2.47;;;;;;;;;;4922505;29;20047;-90
2022/09/13 13:36:40;;;;;;;4.43;2.40;;;;;;;;;;4938715;29;21918;-89
2022/09/13 13:39:24;;;;;;;5.75;2.42;;;;;;;;;;4939460;29;20028;-82
2022/09/13 13:41:53;;;;;;;3.67;2.90;;;;;;;;;;4939075;29;20080;-80
2022/09/13 13:44:20;;;;;;;3.03;2.50;;;;;;;;;;4932401;29;20498;-79
2022/09/13 13:46:47;;;;;;;3.88;2.67;;;;;;;;;;4937593;29;20565;-89
2022/09/13 13:49:29;;;;;;;6.30;2.42;;;;;;;;;;4921635;29;20389;-82
2022/09/13 13:52:07;;;;;;;6.57;2.30;;;;;;;;;;4934910;29;20031;-84
2022/09/13 13:54:48;;;;;;;3.92;2.60;;;;;;;;;;4921937;29;20032;-89
2022/09/13 13:57:23;;;;;;;3.47;2.40;;;;;;;;;;4922337;29;20501;-83
2022/09/13 13:59:51;;;;;;;3.92;2.20;;;;;;;;;;4937746;29;20116;-90
2022/09/13 14:02:21;;;;;;;3.47;2.42;;;;;;;;;;4939080;29;20478;-90
2022/09/13 14:04:47;;;;;;;2.65;2.38;;;;;;;;;;4919309;29;20032;-87
2022/09/13 14:07:32;;;;;;;5.95;2.80;;;;;;;;;;4921783;29;20039;-89
2022/09/13 14:10:09;;;;;;;5.22;2.50;;;;;;;;;;4937667;29;20035;-89
2022/09/13 14:12:35;;;;;;;3.15;2.50;;;;;;;;;;4922822;29;20079;-90
2022/09/13 14:15:14;;;;;;;4.22;2.25;;;;;;;;;;4938230;29;20398;-89
2022/09/13 14:18:14;;;;;;;6.45;2.63;;;;;;;;;;4916083;29;20130;-87
2022/09/13 14:21:01;;;;;;;3.35;2.65;;;;;;;;;;4939818;29;20036;-89
2022/09/13 14:23:28;;;;;;;4.13;2.30;;;;;;;;;;4934116;29;20067;-86
2022/09/13 14:25:55;;;;;;;8.57;6.38;;;;;;;;;;4921970;29;20039;-82
2022/09/13 14:28:22;;;;;;;10.98;5.20;;;;;;;;;;4918213;29;20115;-86
2022/09/13 14:30:52;;;;;;;4.43;2.60;;;;;;;;;;4933902;29;20114;-88
2022/09/13 14:42:40;;;;;;;4.15;2.72;;;;;;;;;;4880030;29;20071;-83
2022/09/13 14:45:06;;;;;;;3.67;2.63;;;;;;;;;;4863177;29;20037;-88
2022/09/13 14:47:59;;;;;;;5.60;2.58;;;;;;;;;;4864713;29;20092;-89
2022/09/13 14:50:32;;;;;;;4.03;2.80;;;;;;;;;;4879824;29;20041;-85
2022/09/13 14:53:03;;;;;;;2.95;2.40;;;;;;;;;;4859574;29;20543;-90
2022/09/13 14:55:43;;;;;;;2.83;2.47;;;;;;;;;;4863076;29;20399;-80
2022/09/13 14:58:18;;;;;;;3.88;2.78;;;;;;;;;;4875983;29;20045;-82
2022/09/13 15:01:04;;;;;;;6.32;4.43;;;;;;;;;;4873212;29;20885;-84
2022/09/13 15:03:30;;;;;;;8.52;4.10;;;;;;;;;;4877528;29;20045;-74
2022/09/13 15:05:58;;;;;;;6.05;3.50;;;;;;;;;;4877031;29;20029;-82
2022/09/13 15:08:33;;;;;;;7.05;4.68;;;;;;;;;;4879665;29;20036;-74
2022/09/13 15:11:04;;;;;;;6.20;2.70;;;;;;;;;;4862387;29;20448;-81
2022/09/13 15:13:30;;;;;;;7.60;3.40;;;;;;;;;;4893536;29;20094;-87
2022/09/13 15:15:56;;;;;;;4.53;2.50;;;;;;;;;;4933684;29;20070;-79
2022/09/13 15:18:30;;;;;;;4.18;2.60;;;;;;;;;;4933360;29;20130;-78
2022/09/13 15:21:04;;;;;;;4.70;2.70;;;;;;;;;;4917758;29;20094;-80
2022/09/13 15:23:41;;;;;;;4.78;2.55;;;;;;;;;;4915949;29;20027;-88
2022/09/13 15:26:13;;;;;;;4.18;2.72;;;;;;;;;;4910013;29;20533;-74
2022/09/13 15:28:53;;;;;;;5.00;2.50;;;;;;;;;;4900348;29;20091;-79
2022/09/13 15:31:23;;;;;;;5.50;2.45;;;;;;;;;;4918035;29;20084;-76